Time;durP1;ratioP1;P1;durP2;ratioP2;P2;SDS_P1;SDS_P2;PMS_P1;PMS_P2;Temp;Humidity;BMP_temperature;BMP_pressure;BME280_temperature;BME280_humidity;BME280_pressure;Samples;Min_cycle;Max_cycle;Signal;HPM_P1;HPM_P2
2022/01/24 05:02:38;;;;;;;13.23;9.30;;;3.10;99.90;;;;;;4968675;23;20496;-72
2022/01/24 05:05:06;;;;;;;13.20;9.90;;;3.10;99.90;;;;;;4953601;29;20459;-72
2022/01/24 05:07:33;;;;;;;13.23;9.37;;;3.10;99.90;;;;;;4953551;28;20540;-72
2022/01/24 05:10:07;;;;;;;12.70;9.87;;;3.10;99.90;;;;;;4953059;29;20544;-72
2022/01/24 05:21:22;;;;;;;14.17;10.07;;;3.10;99.90;;;;;;4956265;28;20475;-72
2022/01/24 05:21:33;;;;;;;13.13;8.93;;;3.10;99.90;;;;;;4957005;28;20467;-72
2022/01/24 05:23:59;;;;;;;13.17;9.63;;;3.10;99.90;;;;;;4957093;29;20492;-72
2022/01/24 05:26:26;;;;;;;13.80;9.97;;;3.00;99.90;;;;;;4956734;29;20991;-74
2022/01/24 05:28:53;;;;;;;12.27;8.87;;;3.10;99.90;;;;;;4956708;29;20490;-73
2022/01/24 05:31:21;;;;;;;13.17;9.83;;;3.10;99.90;;;;;;4957147;28;20564;-74
2022/01/24 05:33:49;;;;;;;15.50;10.83;;;3.10;99.90;;;;;;4956957;28;20992;-74
2022/01/24 05:36:16;;;;;;;12.73;9.93;;;3.10;99.90;;;;;;4956837;28;20515;-72
2022/01/24 05:38:43;;;;;;;14.03;10.20;;;3.10;99.90;;;;;;4956717;29;20463;-74
2022/01/24 05:41:10;;;;;;;15.80;10.50;;;3.10;99.90;;;;;;4956479;28;20943;-72
2022/01/24 05:43:37;;;;;;;15.70;11.20;;;3.20;99.90;;;;;;4957027;29;20589;-72
2022/01/24 05:46:04;;;;;;;17.13;10.63;;;3.20;99.90;;;;;;4956736;28;20459;-72
2022/01/24 05:48:31;;;;;;;17.43;10.67;;;3.20;99.90;;;;;;4956695;29;20556;-72
2022/01/24 05:50:59;;;;;;;14.27;9.20;;;3.30;99.90;;;;;;4956323;28;20551;-73
2022/01/24 05:53:26;;;;;;;13.63;9.87;;;3.30;99.90;;;;;;4956467;29;20535;-72
2022/01/24 05:55:54;;;;;;;13.40;11.00;;;3.30;99.90;;;;;;4956345;28;20579;-72
2022/01/24 05:58:22;;;;;;;12.77;9.33;;;3.40;99.90;;;;;;4956701;29;20517;-72
2022/01/24 06:00:49;;;;;;;13.90;9.67;;;3.40;99.90;;;;;;4956001;28;20559;-72
2022/01/24 06:03:16;;;;;;;12.67;9.40;;;3.30;99.90;;;;;;4956162;28;20528;-73
2022/01/24 06:05:43;;;;;;;14.90;10.13;;;3.30;99.90;;;;;;4956197;29;20539;-73
2022/01/24 06:08:11;;;;;;;12.10;9.27;;;3.40;99.90;;;;;;4955894;29;20539;-73
2022/01/24 06:10:39;;;;;;;14.40;9.93;;;3.40;99.90;;;;;;4955840;28;20556;-73
2022/01/24 06:13:07;;;;;;;13.77;9.33;;;3.40;99.90;;;;;;4956202;28;20457;-73
2022/01/24 06:15:34;;;;;;;14.17;9.77;;;3.50;99.90;;;;;;4955927;28;20496;-73
2022/01/24 06:18:01;;;;;;;11.83;9.23;;;3.50;99.90;;;;;;4956362;29;20484;-73
2022/01/24 06:20:28;;;;;;;14.47;10.23;;;3.50;99.90;;;;;;4955668;28;20459;-73
2022/01/24 06:22:54;;;;;;;14.40;10.10;;;3.60;99.90;;;;;;4955141;28;20548;-73
2022/01/24 06:25:24;;;;;;;13.17;9.53;;;3.60;99.90;;;;;;4955594;29;20886;-74
2022/01/24 06:27:52;;;;;;;13.30;9.70;;;3.60;99.90;;;;;;4954840;29;20453;-73
2022/01/24 06:30:19;;;;;;;17.37;10.20;;;3.60;99.90;;;;;;4954535;28;20449;-74
2022/01/24 06:32:45;;;;;;;11.80;9.53;;;3.60;99.90;;;;;;4954872;28;20544;-74
2022/01/24 06:35:15;;;;;;;13.50;9.40;;;3.50;99.90;;;;;;4954682;29;20948;-74
2022/01/24 06:37:42;;;;;;;16.63;10.00;;;3.60;99.90;;;;;;4941129;29;20966;-74
2022/01/24 06:40:12;;;;;;;14.77;8.80;;;3.60;99.90;;;;;;4945715;29;20528;-75
2022/01/24 06:42:40;;;;;;;12.33;9.00;;;3.60;99.90;;;;;;4954764;29;20449;-76
2022/01/24 06:45:08;;;;;;;13.00;9.03;;;3.60;99.90;;;;;;4954886;29;21005;-75
2022/01/24 06:47:35;;;;;;;11.20;9.07;;;3.60;99.90;;;;;;4955609;28;20457;-74
2022/01/24 06:50:02;;;;;;;13.53;9.60;;;3.50;99.90;;;;;;4955133;29;20459;-74
2022/01/24 06:52:29;;;;;;;12.00;9.50;;;3.60;99.90;;;;;;4955708;28;20559;-74
2022/01/24 06:54:56;;;;;;;12.03;9.60;;;3.60;99.90;;;;;;4955096;29;20604;-74
2022/01/24 06:57:24;;;;;;;11.87;9.33;;;3.50;99.90;;;;;;4955397;29;20492;-74
2022/01/24 06:59:52;;;;;;;11.00;8.87;;;3.50;99.90;;;;;;4955580;28;20456;-74
2022/01/24 07:02:19;;;;;;;13.20;8.40;;;3.50;99.90;;;;;;4952784;29;21060;-72
2022/01/24 07:04:46;;;;;;;13.30;9.70;;;3.60;99.90;;;;;;4941534;29;20568;-74
2022/01/24 07:07:14;;;;;;;13.37;9.80;;;3.60;99.90;;;;;;4936148;29;20550;-74
2022/01/24 07:09:44;;;;;;;14.47;10.40;;;3.60;99.90;;;;;;4935950;29;20453;-65
2022/01/24 07:12:11;;;;;;;13.50;10.20;;;3.60;99.90;;;;;;4935808;29;20473;-65
2022/01/24 07:14:40;;;;;;;12.40;9.87;;;3.60;99.90;;;;;;4935882;29;20909;-74
2022/01/24 07:17:17;;;;;;;12.67;9.50;;;3.60;99.90;;;;;;4935561;29;20922;-74
2022/01/24 07:19:44;;;;;;;12.67;10.90;;;3.60;99.90;;;;;;4935587;29;20472;-74
2022/01/24 07:22:11;;;;;;;11.37;9.70;;;3.70;99.90;;;;;;4936027;29;20548;-74
2022/01/24 07:24:38;;;;;;;13.60;10.53;;;3.70;99.90;;;;;;4936078;29;20453;-74
2022/01/24 07:27:06;;;;;;;14.20;10.50;;;3.60;99.90;;;;;;4935523;29;20545;-74
2022/01/24 07:29:33;;;;;;;12.40;9.90;;;3.60;99.90;;;;;;4935168;29;20466;-74
2022/01/24 07:32:00;;;;;;;13.43;10.40;;;3.60;99.90;;;;;;4935788;29;20505;-74
2022/01/24 07:34:28;;;;;;;12.27;10.40;;;3.60;99.90;;;;;;4935233;29;20505;-74
2022/01/24 07:36:55;;;;;;;14.40;10.40;;;3.60;99.90;;;;;;4935096;29;20609;-74
2022/01/24 07:39:22;;;;;;;13.77;11.20;;;3.60;99.90;;;;;;4935369;29;20877;-77
2022/01/24 07:41:50;;;;;;;15.73;12.60;;;3.60;99.90;;;;;;4935343;29;20928;-74
2022/01/24 07:44:20;;;;;;;13.43;10.70;;;3.60;99.90;;;;;;4934996;29;20497;-75
2022/01/24 07:46:47;;;;;;;16.10;11.33;;;3.60;99.90;;;;;;4935357;29;20446;-75
2022/01/24 07:49:14;;;;;;;13.20;10.90;;;3.60;99.90;;;;;;4934518;29;20548;-74
2022/01/24 07:51:43;;;;;;;14.30;10.80;;;3.70;99.90;;;;;;4934377;29;20560;-74
2022/01/24 07:54:10;;;;;;;12.40;9.33;;;3.60;99.90;;;;;;4938489;29;20536;-74
2022/01/24 07:56:37;;;;;;;12.70;9.50;;;3.60;99.90;;;;;;4953197;29;20587;-75
2022/01/24 07:59:04;;;;;;;14.50;10.67;;;3.60;99.90;;;;;;4953342;29;20644;-74
2022/01/24 08:01:32;;;;;;;15.00;11.90;;;3.60;99.90;;;;;;4953327;29;20515;-74
2022/01/24 08:03:59;;;;;;;12.97;10.93;;;3.60;99.90;;;;;;4953197;29;21000;-74
2022/01/24 08:06:26;;;;;;;15.73;11.30;;;3.70;99.90;;;;;;4953372;29;20548;-74
2022/01/24 08:08:55;;;;;;;11.00;9.30;;;3.70;99.90;;;;;;4939005;29;20998;-74
2022/01/24 08:11:22;;;;;;;10.50;9.40;;;3.70;99.90;;;;;;4933963;29;20552;-75
2022/01/24 08:13:49;;;;;;;12.70;10.20;;;3.70;99.90;;;;;;4933990;29;20521;-74
2022/01/24 08:16:17;;;;;;;12.73;9.73;;;3.70;99.90;;;;;;4939492;29;20555;-74
2022/01/24 08:18:44;;;;;;;9.70;8.70;;;3.70;99.90;;;;;;4952923;29;21000;-75
2022/01/24 08:21:11;;;;;;;10.70;7.80;;;3.70;99.90;;;;;;4948357;29;20497;-74
2022/01/24 08:23:38;;;;;;;10.00;7.83;;;3.70;99.90;;;;;;4952919;29;21016;-74
2022/01/24 08:26:06;;;;;;;9.73;8.27;;;3.70;99.90;;;;;;4949466;29;20529;-74
2022/01/24 08:28:34;;;;;;;9.80;7.97;;;3.70;99.90;;;;;;4935109;29;20540;-75
2022/01/24 08:31:01;;;;;;;10.70;8.50;;;3.70;99.90;;;;;;4937977;29;20470;-75
2022/01/24 08:33:28;;;;;;;10.40;8.43;;;3.80;99.90;;;;;;4933816;29;20883;-75
2022/01/24 08:35:55;;;;;;;13.13;8.27;;;3.80;99.90;;;;;;4933620;29;20503;-75
2022/01/24 08:38:23;;;;;;;11.80;7.70;;;3.90;99.90;;;;;;4933564;29;20464;-75
2022/01/24 08:40:54;;;;;;;8.70;7.80;;;3.90;99.90;;;;;;4933605;29;20477;-75
2022/01/24 08:43:37;;;;;;;10.47;8.47;;;3.90;99.90;;;;;;4947847;29;20568;-75
2022/01/24 08:46:04;;;;;;;9.90;7.67;;;4.00;99.90;;;;;;4953147;28;20448;-75
2022/01/24 08:48:31;;;;;;;10.73;8.20;;;4.00;99.90;;;;;;4956775;28;20915;-75
2022/01/24 08:51:00;;;;;;;8.40;7.47;;;4.10;99.90;;;;;;4956093;29;20484;-75
2022/01/24 08:53:30;;;;;;;12.00;7.87;;;4.10;99.90;;;;;;4937869;29;20540;-75
2022/01/24 08:55:58;;;;;;;11.83;7.70;;;4.10;99.90;;;;;;4941664;29;20489;-75
2022/01/24 08:58:26;;;;;;;11.03;6.90;;;4.10;99.90;;;;;;4944630;29;20448;-76
2022/01/24 09:00:54;;;;;;;8.50;6.70;;;4.20;99.90;;;;;;4944596;29;20512;-76
2022/01/24 09:03:21;;;;;;;6.90;5.73;;;4.20;99.90;;;;;;4942211;29;20534;-75
2022/01/24 09:05:49;;;;;;;11.37;7.53;;;4.30;99.90;;;;;;4937586;29;20504;-76
2022/01/24 09:08:16;;;;;;;9.27;7.93;;;4.30;99.90;;;;;;4937418;29;20468;-76
2022/01/24 09:10:46;;;;;;;9.50;6.73;;;4.40;99.90;;;;;;4937219;29;20473;-76
2022/01/24 09:13:13;;;;;;;10.43;7.10;;;4.50;99.90;;;;;;4937079;29;21004;-75
2022/01/24 09:15:41;;;;;;;9.23;6.03;;;4.60;99.90;;;;;;4937380;29;20641;-76
2022/01/24 09:18:09;;;;;;;9.10;6.10;;;4.70;99.90;;;;;;4938364;29;20548;-76
2022/01/24 09:20:38;;;;;;;8.43;6.90;;;4.70;99.90;;;;;;4937969;29;20492;-75
2022/01/24 09:23:05;;;;;;;9.17;6.20;;;4.80;99.90;;;;;;4937871;29;20453;-76
2022/01/24 09:25:33;;;;;;;6.97;6.10;;;4.80;99.90;;;;;;4938095;29;20540;-76
2022/01/24 09:27:59;;;;;;;7.30;6.00;;;5.00;99.90;;;;;;4937957;29;20534;-76
2022/01/24 09:30:26;;;;;;;10.80;6.80;;;5.00;99.90;;;;;;4937275;29;20548;-76
2022/01/24 09:32:55;;;;;;;8.33;6.60;;;5.10;99.90;;;;;;4938076;29;20474;-76
2022/01/24 09:35:22;;;;;;;7.13;6.43;;;5.30;99.90;;;;;;4937901;29;20496;-76
2022/01/24 09:37:49;;;;;;;9.87;6.40;;;5.40;99.90;;;;;;4938261;29;20529;-76
2022/01/24 09:40:17;;;;;;;10.00;6.90;;;5.60;99.90;;;;;;4937502;29;20545;-76
2022/01/24 09:42:46;;;;;;;7.23;5.53;;;5.60;99.90;;;;;;4937867;29;20537;-75
2022/01/24 09:45:14;;;;;;;7.40;5.63;;;5.60;99.90;;;;;;4946236;29;20461;-75
2022/01/24 09:47:42;;;;;;;8.47;6.47;;;5.70;99.90;;;;;;4938750;29;20536;-76
2022/01/24 09:50:13;;;;;;;6.50;5.80;;;5.70;99.90;;;;;;4937384;29;20541;-76
2022/01/24 09:52:42;;;;;;;6.43;5.83;;;5.80;99.90;;;;;;4937278;29;20540;-76
2022/01/24 09:55:10;;;;;;;8.27;6.60;;;6.00;99.90;;;;;;4936756;29;20457;-76
2022/01/24 09:57:37;;;;;;;6.53;5.30;;;6.10;99.90;;;;;;4935545;29;20528;-77
2022/01/24 10:00:05;;;;;;;7.63;5.40;;;6.20;99.90;;;;;;4937061;29;20876;-76
2022/01/24 10:02:32;;;;;;;5.33;4.70;;;6.30;99.90;;;;;;4937115;29;21066;-76
2022/01/24 10:05:15;;;;;;;7.57;5.30;;;6.40;99.90;;;;;;4937392;29;20541;-76
2022/01/24 10:07:42;;;;;;;7.30;5.03;;;6.60;99.90;;;;;;4937128;29;20962;-76
2022/01/24 10:10:09;;;;;;;4.53;4.13;;;6.70;99.90;;;;;;4937064;29;20540;-76
2022/01/24 10:16:24;;;;;;;4.90;4.40;;;6.80;99.90;;;;;;4936754;29;20497;-76
2022/01/24 10:18:11;;;;;;;10.67;4.20;;;7.00;99.90;;;;;;4935157;29;20500;-77
2022/01/24 10:20:41;;;;;;;5.90;4.60;;;7.00;99.90;;;;;;4936267;29;20462;-77
2022/01/24 10:23:12;;;;;;;7.90;4.87;;;7.00;99.90;;;;;;4936821;29;20481;-77
2022/01/24 10:25:59;;;;;;;7.87;4.57;;;7.10;99.90;;;;;;4936892;29;20468;-77
2022/01/24 10:28:32;;;;;;;5.07;4.63;;;7.20;99.90;;;;;;4937317;29;20562;-77
2022/01/24 10:31:11;;;;;;;9.23;5.70;;;7.20;99.90;;;;;;4936567;29;20498;-76
2022/01/24 10:33:53;;;;;;;6.87;4.97;;;7.30;99.90;;;;;;4936683;29;20516;-76
2022/01/24 10:36:33;;;;;;;5.10;4.37;;;7.40;99.90;;;;;;4936822;29;20449;-78
2022/01/24 10:39:21;;;;;;;4.40;4.00;;;7.60;99.90;;;;;;4936591;29;20521;-77
2022/01/24 10:42:46;;;;;;;6.53;4.47;;;7.50;99.90;;;;;;4936484;29;20568;-77
2022/01/24 10:45:15;;;;;;;5.40;4.73;;;7.50;99.90;;;;;;4936566;29;20467;-77
2022/01/24 10:47:49;;;;;;;4.90;4.50;;;7.40;99.90;;;;;;4936557;29;20890;-77
2022/01/24 10:50:28;;;;;;;10.03;4.60;;;7.50;99.90;;;;;;4936460;29;20446;-77
2022/01/24 10:52:55;;;;;;;5.97;4.80;;;7.60;99.90;;;;;;4936369;29;20970;-77
2022/01/24 10:55:25;;;;;;;4.77;4.30;;;7.60;99.90;;;;;;4936470;29;20528;-78
2022/01/24 10:58:00;;;;;;;4.90;4.30;;;7.70;99.90;;;;;;4935848;29;20584;-75
2022/01/24 11:00:29;;;;;;;6.00;4.57;;;7.80;99.90;;;;;;4935817;29;20517;-76
2022/01/24 11:02:59;;;;;;;8.30;4.47;;;7.80;99.90;;;;;;4936513;29;20517;-76
2022/01/24 11:05:28;;;;;;;5.80;4.53;;;7.80;99.90;;;;;;4936333;29;20493;-77
2022/01/24 11:07:58;;;;;;;7.13;4.70;;;7.70;99.90;;;;;;4936131;29;21037;-76
2022/01/24 11:10:28;;;;;;;4.40;4.00;;;7.80;99.90;;;;;;4935527;29;20510;-77
2022/01/24 11:12:56;;;;;;;4.27;3.87;;;7.80;99.90;;;;;;4935602;29;20891;-76
2022/01/24 11:15:24;;;;;;;4.80;4.30;;;7.90;99.90;;;;;;4987819;23;21085;-79
2022/01/24 11:17:52;;;;;;;4.60;4.20;;;7.90;99.90;;;;;;4976157;28;20492;-79
2022/01/24 11:20:21;;;;;;;7.70;4.60;;;8.00;99.90;;;;;;4975623;28;20539;-79
2022/01/24 11:22:57;;;;;;;4.50;4.10;;;8.10;99.90;;;;;;4975452;28;20543;-79
2022/01/24 11:25:25;;;;;;;5.07;4.47;;;8.20;99.90;;;;;;4975771;28;20550;-78
2022/01/24 11:27:52;;;;;;;4.10;3.70;;;8.20;99.90;;;;;;4975951;28;20498;-78
2022/01/24 11:30:23;;;;;;;5.43;4.17;;;8.30;99.90;;;;;;4975442;28;20540;-79
2022/01/24 11:32:53;;;;;;;6.63;4.40;;;8.40;99.90;;;;;;4976469;28;20440;-79
2022/01/24 11:35:41;;;;;;;4.30;3.90;;;8.40;99.90;;;;;;4975316;28;20566;-79
2022/01/24 11:38:28;;;;;;;5.07;4.57;;;8.40;99.90;;;;;;4974801;28;20487;-79
2022/01/24 11:41:00;;;;;;;6.77;4.40;;;8.40;99.90;;;;;;4975324;28;20975;-79
2022/01/24 11:43:28;;;;;;;6.90;4.83;;;8.40;99.90;;;;;;4974992;28;20632;-79
2022/01/24 11:46:02;;;;;;;6.00;4.07;;;8.60;99.90;;;;;;4974282;28;20514;-79
2022/01/24 11:48:29;;;;;;;5.20;3.93;;;8.90;99.90;;;;;;4972993;28;20877;-77
2022/01/24 11:51:00;;;;;;;4.67;3.47;;;9.10;99.90;;;;;;4971009;28;20559;-77
2022/01/24 11:53:29;;;;;;;7.23;3.27;;;9.30;99.90;;;;;;4972276;28;20494;-76
2022/01/24 11:55:56;;;;;;;8.40;4.37;;;9.30;99.90;;;;;;4972831;28;20464;-76
2022/01/24 11:58:28;;;;;;;5.93;4.10;;;9.50;99.90;;;;;;4973015;28;20988;-78
2022/01/24 12:01:02;;;;;;;4.97;3.43;;;9.60;99.90;;;;;;4975158;28;20538;-79
2022/01/24 12:03:29;;;;;;;5.43;3.33;;;9.70;99.90;;;;;;4972979;28;20942;-79
2022/01/24 12:05:58;;;;;;;8.53;3.20;;;9.60;99.90;;;;;;4968691;28;20891;-79
2022/01/24 12:08:32;;;;;;;4.03;2.70;;;9.60;99.90;;;;;;4975144;28;20493;-77
2022/01/24 12:11:12;;;;;;;4.00;3.37;;;9.50;99.90;;;;;;4957646;28;20457;-78
2022/01/24 12:13:44;;;;;;;3.70;3.17;;;9.40;99.90;;;;;;4955391;29;20555;-78
2022/01/24 12:16:14;;;;;;;7.63;3.57;;;9.40;99.90;;;;;;4954890;28;20988;-79
2022/01/24 12:18:50;;;;;;;7.70;3.63;;;9.40;99.90;;;;;;4954458;29;20926;-78
2022/01/24 12:21:24;;;;;;;4.00;3.50;;;9.30;99.90;;;;;;4953641;28;20459;-79
2022/01/24 12:23:52;;;;;;;3.60;3.30;;;9.30;99.90;;;;;;4960283;28;20476;-79
2022/01/24 12:26:31;;;;;;;4.10;3.00;;;9.30;99.90;;;;;;4963083;28;20544;-79
2022/01/24 12:29:03;;;;;;;6.90;2.70;;;9.40;99.90;;;;;;4954969;28;20460;-78
2022/01/24 12:31:34;;;;;;;4.17;3.47;;;9.50;99.90;;;;;;4956269;28;20479;-79
2022/01/24 12:34:08;;;;;;;3.30;2.80;;;9.80;99.90;;;;;;4956417;29;20563;-79
2022/01/24 12:37:00;;;;;;;3.77;3.03;;;9.90;99.90;;;;;;4954361;29;20492;-78
2022/01/24 12:39:33;;;;;;;4.93;3.27;;;10.00;99.90;;;;;;4954974;29;20492;-78
2022/01/24 12:42:03;;;;;;;3.40;3.10;;;9.90;99.90;;;;;;4954889;28;20511;-79
2022/01/24 12:47:21;;;;;;;4.10;2.77;;;10.40;99.90;;;-143.14;100.00;56521.75;4955014;29;20495;-79
2022/01/24 12:49:51;;;;;;;4.30;2.80;;;10.80;99.90;;;-143.14;100.00;56521.75;4955553;29;20822;-79
2022/01/24 12:52:22;;;;;;;5.07;3.57;;;11.00;99.90;;;;;;4954491;28;20453;-79
2022/01/24 12:54:51;;;;;;;3.90;3.00;;;11.10;99.90;;;;;;4955065;29;20500;-79
2022/01/24 12:57:22;;;;;;;3.13;2.70;;;11.00;99.90;;;;;;4955354;29;20528;-79
2022/01/24 12:59:54;;;;;;;5.70;2.87;;;10.80;99.90;;;;;;4955014;28;20464;-79
2022/01/24 13:02:26;;;;;;;3.10;2.70;;;10.70;99.90;;;;;;4955470;29;20840;-79
2022/01/24 13:05:00;;;;;;;3.50;2.87;;;10.60;99.90;;;;;;4954653;28;20580;-79
2022/01/24 13:07:30;;;;;;;3.10;2.43;;;10.40;99.90;;;;;;4955722;28;21176;-79
2022/01/24 13:10:06;;;;;;;4.70;3.13;;;10.40;99.90;;;;;;4955316;29;20464;-79
2022/01/24 13:12:33;;;;;;;3.00;2.60;;;10.40;99.90;;;;;;4954870;28;20877;-79
2022/01/24 13:15:04;;;;;;;4.07;2.50;;;10.40;99.90;;;;;;4957899;28;20511;-80
2022/01/24 13:20:44;;;;;;;5.27;3.47;;;10.30;99.90;;;;;;4956622;28;20803;-79
2022/01/24 13:23:21;;;;;;;3.57;3.13;;;10.30;99.90;;;;;;4955505;29;20477;-79
2022/01/24 13:25:49;;;;;;;3.50;2.83;;;10.30;99.90;;;;;;4953555;29;20483;-79
2022/01/24 13:28:19;;;;;;;3.07;2.60;;;10.20;99.90;;;;;;4955131;29;20496;-79
2022/01/24 13:30:48;;;;;;;4.60;2.67;;;10.30;99.90;;;;;;4955245;29;20461;-79
2022/01/24 13:33:20;;;;;;;5.47;2.40;;;10.30;99.90;;;;;;4957068;28;20531;-79
2022/01/24 13:35:49;;;;;;;3.03;2.73;;;10.20;99.90;;;;;;4958478;28;20477;-78
2022/01/24 13:38:19;;;;;;;3.40;2.60;;;10.30;99.90;;;;;;4957982;29;20492;-78
2022/01/24 13:40:53;;;;;;;4.47;2.60;;;10.30;99.90;;;;;;4958504;29;20558;-78
2022/01/24 13:43:31;;;;;;;4.80;2.60;;;10.20;99.90;;;;;;4958697;29;20624;-79
2022/01/24 13:45:59;;;;;;;2.53;2.33;;;10.20;99.90;;;;;;4958222;28;20479;-78
2022/01/24 13:48:27;;;;;;;5.13;2.67;;;10.10;99.90;;;;;;4958106;28;20544;-79
2022/01/24 13:50:57;;;;;;;6.60;3.20;;;10.10;99.90;;;;;;4957481;29;20492;-78
2022/01/24 13:53:32;;;;;;;2.77;2.57;;;10.10;99.90;;;;;;4958056;29;20540;-78
2022/01/24 13:55:59;;;;;;;2.40;2.20;;;10.10;99.90;;;;;;4957738;28;20504;-78
2022/01/24 13:58:28;;;;;;;5.20;2.53;;;10.20;99.90;;;;;;4957596;28;20496;-78
2022/01/24 14:00:59;;;;;;;4.57;2.57;;;10.20;99.90;;;;;;4957694;29;20545;-78
2022/01/24 14:03:27;;;;;;;3.43;2.67;;;10.20;99.90;;;;;;4957501;28;20448;-78
2022/01/24 14:06:15;;;;;;;5.17;2.50;;;10.10;99.90;;;;;;4957297;28;20508;-78
2022/01/24 14:08:42;;;;;;;3.37;2.70;;;10.10;99.90;;;;;;4957590;29;20453;-78
2022/01/24 14:11:14;;;;;;;3.20;2.67;;;10.10;99.90;;;;;;4957277;29;21029;-78
2022/01/24 14:13:48;;;;;;;4.00;2.30;;;10.10;99.90;;;;;;4957393;29;20531;-78
2022/01/24 14:16:35;;;;;;;3.90;2.97;;;10.10;99.90;;;;;;4958016;29;20456;-78
2022/01/24 14:19:04;;;;;;;2.90;2.50;;;10.10;99.90;;;;;;4956746;29;20488;-78
2022/01/24 14:21:31;;;;;;;4.33;2.70;;;10.10;99.90;;;;;;4956828;29;20457;-78
2022/01/24 14:24:00;;;;;;;4.20;2.33;;;10.20;99.90;;;;;;4957399;29;20560;-78
2022/01/24 14:26:28;;;;;;;6.70;2.40;;;10.10;99.90;;;;;;4957241;29;20452;-79
2022/01/24 14:29:11;;;;;;;2.60;2.40;;;10.10;99.90;;;;;;4956113;29;20887;-78
2022/01/24 14:31:40;;;;;;;2.97;2.40;;;9.90;99.90;;;;;;4956140;29;20503;-78
2022/01/24 14:34:09;;;;;;;4.33;2.60;;;9.90;99.90;;;;;;4955990;29;20476;-78
2022/01/24 14:36:37;;;;;;;4.87;3.47;;;9.80;99.90;;;;;;4955808;29;20544;-78
2022/01/24 14:39:07;;;;;;;4.60;2.87;;;9.80;99.90;;;;;;4955900;28;20499;-78
2022/01/24 14:41:39;;;;;;;4.30;2.40;;;9.70;99.90;;;;;;4956362;29;20875;-78
2022/01/24 14:46:54;;;;;;;4.70;3.30;;;9.60;99.90;;;;;;4955793;28;20448;-78
2022/01/24 14:49:24;;;;;;;5.17;2.80;;;9.50;99.90;;;;;;4955767;29;20453;-78
2022/01/24 14:51:52;;;;;;;8.77;3.00;;;9.50;99.90;;;;;;4955695;29;20456;-78
2022/01/24 14:54:20;;;;;;;4.80;2.57;;;9.40;99.90;;;;;;4955960;29;20559;-78
2022/01/24 14:56:49;;;;;;;6.57;3.30;;;9.40;99.90;;;;;;4955538;29;20535;-78
2022/01/24 14:59:17;;;;;;;9.43;4.07;;;9.40;99.90;;;;;;4955256;28;20587;-78
2022/01/24 15:01:44;;;;;;;4.93;3.20;;;9.50;99.90;;;;;;4955451;29;20540;-78
2022/01/24 15:04:11;;;;;;;6.50;3.80;;;9.50;99.90;;;;;;4955691;29;20469;-78
2022/01/24 15:06:40;;;;;;;5.03;3.17;;;9.60;99.90;;;;;;4955681;28;20548;-78
2022/01/24 15:09:10;;;;;;;3.63;2.33;;;9.60;99.90;;;;;;4954999;29;20463;-78
2022/01/24 15:11:40;;;;;;;2.33;2.13;;;9.60;99.90;;;;;;4955319;29;20548;-77
2022/01/24 15:14:13;;;;;;;5.80;3.10;;;9.60;99.90;;;;;;4955075;28;20992;-79
2022/01/24 15:16:46;;;;;;;9.10;2.80;;;9.60;99.90;;;;;;4955832;29;20875;-78
2022/01/24 15:27:31;;;;;;;3.03;2.70;;;10.00;99.90;;;;;;4938487;28;20449;-78
2022/01/24 15:29:58;;;;;;;6.73;3.83;;;10.10;99.90;;;;;;4955285;28;20896;-78
2022/01/24 15:32:25;;;;;;;4.00;3.30;;;10.20;99.90;;;;;;4955829;29;20543;-78
2022/01/24 15:34:52;;;;;;;4.43;2.90;;;10.30;99.90;;;;;;4955374;29;20508;-77
2022/01/24 15:37:20;;;;;;;7.00;3.33;;;10.40;99.90;;;;;;4956248;29;20456;-78
2022/01/24 15:39:47;;;;;;;3.90;3.47;;;10.40;99.90;;;;;;4956250;29;20590;-79
2022/01/24 15:42:17;;;;;;;6.30;2.77;;;10.30;99.90;;;;;;4955943;29;20531;-78
2022/01/24 15:47:34;;;;;;;8.03;3.20;;;9.90;99.90;;;;;;4955552;28;20448;-78
2022/01/24 15:50:04;;;;;;;8.37;3.20;;;9.80;99.90;;;;;;4955529;29;20453;-78
2022/01/24 15:52:33;;;;;;;4.37;3.53;;;9.50;99.90;;;;;;4955480;28;20545;-78
2022/01/24 15:55:05;;;;;;;5.03;3.40;;;9.30;99.90;;;;;;4955339;29;20576;-78
2022/01/24 15:57:42;;;;;;;7.27;2.97;;;9.20;99.90;;;;;;4954402;29;20492;-78
2022/01/24 16:00:13;;;;;;;9.10;5.27;;;9.00;99.90;;;;;;4955169;29;20496;-78
2022/01/24 16:02:41;;;;;;;4.57;3.67;;;8.90;99.90;;;;;;4955024;28;20490;-78
2022/01/24 16:05:09;;;;;;;7.23;3.80;;;8.80;99.90;;;;;;4956692;28;20472;-78
2022/01/24 16:07:39;;;;;;;8.30;3.70;;;8.60;99.90;;;;;;4962587;28;20444;-78
2022/01/24 16:10:08;;;;;;;6.60;4.70;;;8.50;99.90;;;;;;4958364;28;20809;-77
2022/01/24 16:12:35;;;;;;;8.77;5.40;;;8.50;99.90;;;;;;4954096;28;20462;-78
2022/01/24 16:15:02;;;;;;;8.10;5.40;;;8.40;99.90;;;;;;4954221;29;20564;-78
2022/01/24 16:17:29;;;;;;;6.40;4.60;;;8.40;99.90;;;;;;4954424;29;20449;-78
2022/01/24 16:19:57;;;;;;;6.20;4.40;;;8.30;99.90;;;;;;4953662;29;20551;-78
2022/01/24 16:22:45;;;;;;;6.33;4.03;;;8.30;99.90;;;;;;4954073;29;20449;-78
2022/01/24 16:25:22;;;;;;;5.00;3.80;;;8.20;99.90;;;;;;4954127;29;20508;-78
2022/01/24 16:27:49;;;;;;;7.60;4.27;;;8.10;99.90;;;;;;4954323;28;20551;-77
2022/01/24 16:30:16;;;;;;;7.57;4.53;;;8.00;99.90;;;;;;4953879;29;20549;-77
2022/01/24 16:32:43;;;;;;;5.97;4.37;;;8.00;99.90;;;;;;4954127;29;20449;-77
2022/01/24 16:35:10;;;;;;;6.73;4.33;;;7.90;99.90;;;;;;4954155;28;20555;-78
2022/01/24 16:37:37;;;;;;;6.30;4.00;;;7.80;99.90;;;;;;4973442;28;20547;-78
2022/01/24 16:40:10;;;;;;;8.33;4.33;;;7.80;99.90;;;;;;4973349;28;20582;-79
2022/01/24 16:42:53;;;;;;;7.20;3.67;;;7.70;99.90;;;;;;4971766;28;20452;-78
2022/01/24 16:48:01;;;;;;;7.07;3.87;;;7.60;99.90;;;;;;4960643;28;21031;-77
2022/01/24 16:50:28;;;;;;;5.50;3.97;;;7.50;99.90;;;;;;4973115;28;20826;-76
2022/01/24 16:52:55;;;;;;;5.57;4.00;;;7.40;99.90;;;;;;4968514;28;20599;-77
2022/01/24 16:55:23;;;;;;;5.80;4.40;;;7.30;99.90;;;;;;4952839;29;20552;-77
2022/01/24 16:57:51;;;;;;;10.50;5.90;;;7.30;99.90;;;;;;4953117;29;20481;-78
2022/01/24 17:00:18;;;;;;;11.73;6.63;;;7.20;99.90;;;;;;4952289;29;20579;-77
2022/01/24 17:02:45;;;;;;;9.67;8.00;;;7.10;99.90;;;;;;4953001;29;20453;-77
2022/01/24 17:05:12;;;;;;;10.40;7.40;;;7.10;99.90;;;;;;4952720;29;20531;-77
2022/01/24 17:07:39;;;;;;;15.60;7.63;;;7.10;99.90;;;;;;4953987;28;20536;-77
2022/01/24 17:10:07;;;;;;;9.63;6.57;;;7.00;99.90;;;;;;4956449;29;20471;-78
2022/01/24 17:12:34;;;;;;;11.20;6.90;;;7.00;99.90;;;;;;4956431;29;20981;-77
2022/01/24 17:15:05;;;;;;;18.63;9.87;;;7.00;99.90;;;;;;4972647;28;20503;-77
2022/01/24 17:17:33;;;;;;;14.20;8.23;;;6.90;99.90;;;;;;4976305;28;20447;-77
2022/01/24 17:20:00;;;;;;;16.03;6.17;;;6.80;99.90;;;;;;4975945;28;20571;-77
2022/01/24 17:22:27;;;;;;;7.40;5.57;;;6.70;99.90;;;;;;4975980;28;20459;-77
2022/01/24 17:24:54;;;;;;;7.00;4.93;;;6.70;99.90;;;;;;4976672;28;20602;-77
2022/01/24 17:27:21;;;;;;;10.80;5.70;;;6.60;99.90;;;;;;4976527;28;20456;-77
2022/01/24 17:29:50;;;;;;;8.57;5.07;;;6.50;99.90;;;;;;4976215;28;20922;-77
2022/01/24 17:32:18;;;;;;;13.50;6.93;;;6.40;99.90;;;;;;4975131;28;20484;-78
2022/01/24 17:34:45;;;;;;;14.00;6.53;;;6.30;99.90;;;;;;4957673;29;20472;-77
2022/01/24 17:37:13;;;;;;;9.37;6.67;;;6.30;99.90;;;;;;4957372;29;20456;-77
2022/01/24 17:39:40;;;;;;;8.30;6.60;;;6.10;99.90;;;;;;4957346;29;20494;-77
2022/01/24 17:42:07;;;;;;;11.93;6.90;;;6.00;99.90;;;;;;4957128;29;20507;-77
2022/01/24 17:44:35;;;;;;;9.93;5.80;;;6.00;99.90;;;;;;4957272;29;20921;-77
2022/01/24 17:47:03;;;;;;;8.23;5.17;;;6.00;99.90;;;;;;4956908;29;20531;-77
2022/01/24 17:49:31;;;;;;;12.33;5.40;;;5.90;99.90;;;;;;4956848;29;20488;-77
2022/01/24 17:51:58;;;;;;;22.73;6.57;;;5.90;99.90;;;;;;4957075;29;20535;-77
2022/01/24 17:54:25;;;;;;;8.27;5.70;;;5.80;99.90;;;;;;4957007;29;20481;-77
2022/01/24 17:56:52;;;;;;;7.40;5.50;;;5.90;99.90;;;;;;4957127;29;20459;-77
2022/01/24 17:59:19;;;;;;;7.53;5.90;;;5.80;99.90;;;;;;4956733;29;20488;-77
2022/01/24 18:01:46;;;;;;;18.57;10.57;;;5.70;99.90;;;;;;4956994;28;20532;-77
2022/01/24 18:04:13;;;;;;;15.43;8.47;;;5.70;99.90;;;;;;4956780;29;20500;-78
2022/01/24 18:06:44;;;;;;;14.60;9.30;;;5.50;99.90;;;;;;4956543;29;21045;-78
2022/01/24 18:09:11;;;;;;;9.63;6.40;;;5.60;99.90;;;;;;4956366;28;20511;-77
2022/01/24 18:11:38;;;;;;;7.10;5.67;;;5.50;99.90;;;;;;4966512;28;20892;-77
2022/01/24 18:14:05;;;;;;;7.70;5.73;;;5.50;99.90;;;;;;4974333;28;20570;-77
2022/01/24 18:16:32;;;;;;;8.80;6.23;;;5.50;99.90;;;;;;4957461;29;20479;-77
2022/01/24 18:18:59;;;;;;;10.63;6.40;;;5.40;99.90;;;;;;4955101;28;21059;-76
2022/01/24 18:21:26;;;;;;;5.60;5.10;;;5.30;99.90;;;;;;4956701;29;20544;-77
2022/01/24 18:23:54;;;;;;;11.07;6.67;;;5.30;99.90;;;;;;4956448;29;20893;-76
2022/01/24 18:26:23;;;;;;;10.40;6.40;;;5.20;99.90;;;;;;4956220;29;20543;-77
2022/01/24 18:28:50;;;;;;;8.37;6.40;;;5.20;99.90;;;;;;4955587;28;20449;-77
2022/01/24 18:31:17;;;;;;;9.23;5.53;;;5.20;99.90;;;;;;4955639;29;20480;-77
2022/01/24 18:33:44;;;;;;;8.40;5.90;;;5.20;99.90;;;;;;4955457;29;20480;-78
2022/01/24 18:36:11;;;;;;;7.40;6.23;;;5.10;99.90;;;;;;4955389;29;21262;-77